sensor_id;sensor_type;location;lat;lon;timestamp;temperature;humidity
29403;DHT22;16382;59.942;30.472;2023-11-19T17:55:48;-1.40;56.70
29403;DHT22;16382;59.942;30.472;2023-11-19T17:58:16;-2.20;59.10
29403;DHT22;16382;59.942;30.472;2023-11-19T18:00:44;-2.50;60.00
29403;DHT22;16382;59.942;30.472;2023-11-19T18:03:12;-2.50;60.80
29403;DHT22;16382;59.942;30.472;2023-11-19T18:05:40;-2.60;61.00
29403;DHT22;16382;59.942;30.472;2023-11-19T18:08:22;-2.70;61.90
29403;DHT22;16382;59.942;30.472;2023-11-19T18:10:55;-2.70;62.80
29403;DHT22;16382;59.942;30.472;2023-11-19T18:13:23;-2.70;63.20
29403;DHT22;16382;59.942;30.472;2023-11-19T18:15:51;-2.60;63.20
29403;DHT22;16382;59.942;30.472;2023-11-19T18:18:19;-2.60;62.90
29403;DHT22;16382;59.942;30.472;2023-11-19T18:20:47;-2.60;63.10
29403;DHT22;16382;59.942;30.472;2023-11-19T18:23:17;-2.70;63.30
29403;DHT22;16382;59.942;30.472;2023-11-19T18:25:45;-2.60;63.50
29403;DHT22;16382;59.942;30.472;2023-11-19T18:28:17;-2.60;63.40
29403;DHT22;16382;59.942;30.472;2023-11-19T18:30:45;-2.60;63.40
29403;DHT22;16382;59.942;30.472;2023-11-19T18:33:12;-2.60;63.50
29403;DHT22;16382;59.942;30.472;2023-11-19T18:35:40;-2.60;63.40
29403;DHT22;16382;59.942;30.472;2023-11-19T18:38:10;-2.60;64.20
29403;DHT22;16382;59.942;30.472;2023-11-19T18:40:37;-2.60;64.10
29403;DHT22;16382;59.942;30.472;2023-11-19T18:43:05;-2.60;64.00
29403;DHT22;16382;59.942;30.472;2023-11-19T18:45:34;-2.60;64.10
29403;DHT22;16382;59.942;30.472;2023-11-19T18:48:02;-2.50;64.10
29403;DHT22;16382;59.942;30.472;2023-11-19T18:50:31;-2.50;64.20
29403;DHT22;16382;59.942;30.472;2023-11-19T18:53:00;-2.50;64.40
29403;DHT22;16382;59.942;30.472;2023-11-19T18:55:28;-2.50;64.40
29403;DHT22;16382;59.942;30.472;2023-11-19T18:57:56;-2.50;64.40
29403;DHT22;16382;59.942;30.472;2023-11-19T19:00:24;-2.50;64.50
29403;DHT22;16382;59.942;30.472;2023-11-19T19:02:53;-2.50;64.40
29403;DHT22;16382;59.942;30.472;2023-11-19T19:05:21;-2.40;64.30
29403;DHT22;16382;59.942;30.472;2023-11-19T19:07:49;-2.30;64.00
29403;DHT22;16382;59.942;30.472;2023-11-19T19:10:21;-2.40;64.00
29403;DHT22;16382;59.942;30.472;2023-11-19T19:12:48;-2.40;63.90
29403;DHT22;16382;59.942;30.472;2023-11-19T19:15:21;-2.60;63.90
29403;DHT22;16382;59.942;30.472;2023-11-19T19:18:07;-2.80;64.50
29403;DHT22;16382;59.942;30.472;2023-11-19T19:21:51;-2.90;65.60
29403;DHT22;16382;59.942;30.472;2023-11-19T19:24:20;-2.80;66.10
29403;DHT22;16382;59.942;30.472;2023-11-19T19:26:53;-2.70;66.10
29403;DHT22;16382;59.942;30.472;2023-11-19T19:29:28;-2.60;66.00
29403;DHT22;16382;59.942;30.472;2023-11-19T19:32:12;-2.50;65.40
29403;DHT22;16382;59.942;30.472;2023-11-19T19:35:12;-2.50;65.20
29403;DHT22;16382;59.942;30.472;2023-11-19T19:37:48;-2.50;65.30
29403;DHT22;16382;59.942;30.472;2023-11-19T19:40:20;-2.40;65.60
29403;DHT22;16382;59.942;30.472;2023-11-19T19:42:49;-2.40;65.20
29403;DHT22;16382;59.942;30.472;2023-11-19T19:45:17;-2.40;65.20
29403;DHT22;16382;59.942;30.472;2023-11-19T19:47:45;-2.30;65.10
29403;DHT22;16382;59.942;30.472;2023-11-19T19:50:15;-2.30;65.10
29403;DHT22;16382;59.942;30.472;2023-11-19T19:52:43;-2.30;65.20
29403;DHT22;16382;59.942;30.472;2023-11-19T19:55:11;-2.30;64.70
29403;DHT22;16382;59.942;30.472;2023-11-19T19:57:39;-2.30;64.90
29403;DHT22;16382;59.942;30.472;2023-11-19T20:00:08;-2.30;64.90
29403;DHT22;16382;59.942;30.472;2023-11-19T20:02:40;-2.30;65.10
29403;DHT22;16382;59.942;30.472;2023-11-19T20:05:08;-2.30;65.00
29403;DHT22;16382;59.942;30.472;2023-11-19T20:07:40;-2.20;65.00
29403;DHT22;16382;59.942;30.472;2023-11-19T20:10:10;-2.20;65.80
29403;DHT22;16382;59.942;30.472;2023-11-19T20:12:38;-2.20;65.40
29403;DHT22;16382;59.942;30.472;2023-11-19T20:15:07;-2.20;64.80
29403;DHT22;16382;59.942;30.472;2023-11-19T20:17:38;-2.10;64.80
29403;DHT22;16382;59.942;30.472;2023-11-19T20:20:08;-2.00;64.60
29403;DHT22;16382;59.942;30.472;2023-11-19T20:22:40;-2.00;64.10
29403;DHT22;16382;59.942;30.472;2023-11-19T20:25:08;-2.10;64.20
29403;DHT22;16382;59.942;30.472;2023-11-19T20:27:37;-2.10;65.10
29403;DHT22;16382;59.942;30.472;2023-11-19T20:30:10;-2.10;64.60
29403;DHT22;16382;59.942;30.472;2023-11-19T20:32:40;-2.20;65.00
29403;DHT22;16382;59.942;30.472;2023-11-19T20:35:17;-2.20;64.70
29403;DHT22;16382;59.942;30.472;2023-11-19T20:37:47;-2.20;65.20
29403;DHT22;16382;59.942;30.472;2023-11-19T20:40:15;-2.10;65.30
29403;DHT22;16382;59.942;30.472;2023-11-19T20:42:44;-2.10;65.00
29403;DHT22;16382;59.942;30.472;2023-11-19T20:45:12;-2.10;65.00
29403;DHT22;16382;59.942;30.472;2023-11-19T20:47:41;-2.10;65.10
29403;DHT22;16382;59.942;30.472;2023-11-19T20:50:10;-2.10;65.10
29403;DHT22;16382;59.942;30.472;2023-11-19T20:52:38;-2.10;64.90
29403;DHT22;16382;59.942;30.472;2023-11-19T20:55:08;-2.00;64.90
29403;DHT22;16382;59.942;30.472;2023-11-19T20:57:37;-2.00;65.00
29403;DHT22;16382;59.942;30.472;2023-11-19T21:00:06;-2.00;64.80
29403;DHT22;16382;59.942;30.472;2023-11-19T21:02:40;-2.00;65.10
29403;DHT22;16382;59.942;30.472;2023-11-19T21:05:08;-2.00;65.00
29403;DHT22;16382;59.942;30.472;2023-11-19T21:07:41;-2.00;64.80
29403;DHT22;16382;59.942;30.472;2023-11-19T21:10:16;-2.00;64.90
29403;DHT22;16382;59.942;30.472;2023-11-19T21:12:48;-2.00;64.80
29403;DHT22;16382;59.942;30.472;2023-11-19T21:15:18;-2.10;65.00
29403;DHT22;16382;59.942;30.472;2023-11-19T21:17:46;-2.00;65.10
29403;DHT22;16382;59.942;30.472;2023-11-19T21:20:14;-2.00;65.10
29403;DHT22;16382;59.942;30.472;2023-11-19T21:22:43;-2.00;64.90
29403;DHT22;16382;59.942;30.472;2023-11-19T21:25:14;-2.00;65.60
29403;DHT22;16382;59.942;30.472;2023-11-19T21:27:42;-2.00;64.80
29403;DHT22;16382;59.942;30.472;2023-11-19T21:30:11;-2.00;64.90
29403;DHT22;16382;59.942;30.472;2023-11-19T21:32:41;-1.90;65.00
29403;DHT22;16382;59.942;30.472;2023-11-19T21:35:09;-2.00;64.90
29403;DHT22;16382;59.942;30.472;2023-11-19T21:37:37;-2.00;64.70
29403;DHT22;16382;59.942;30.472;2023-11-19T21:40:06;-1.90;64.60
29403;DHT22;16382;59.942;30.472;2023-11-19T21:42:43;-1.90;64.70
29403;DHT22;16382;59.942;30.472;2023-11-19T21:45:12;-1.90;64.60
29403;DHT22;16382;59.942;30.472;2023-11-19T21:47:40;-1.90;65.10
29403;DHT22;16382;59.942;30.472;2023-11-19T21:50:08;-1.90;65.60
29403;DHT22;16382;59.942;30.472;2023-11-19T21:52:36;-1.90;65.70
29403;DHT22;16382;59.942;30.472;2023-11-19T21:55:05;-1.90;65.20
29403;DHT22;16382;59.942;30.472;2023-11-19T21:57:36;-1.90;65.20
29403;DHT22;16382;59.942;30.472;2023-11-19T22:00:09;-1.90;65.00
29403;DHT22;16382;59.942;30.472;2023-11-19T22:02:41;-1.90;65.10
29403;DHT22;16382;59.942;30.472;2023-11-19T22:05:09;-1.90;64.90
29403;DHT22;16382;59.942;30.472;2023-11-19T22:07:40;-1.90;65.10
29403;DHT22;16382;59.942;30.472;2023-11-19T22:10:08;-1.90;65.40
29403;DHT22;16382;59.942;30.472;2023-11-19T22:12:36;-1.90;65.10
29403;DHT22;16382;59.942;30.472;2023-11-19T22:15:08;-1.80;65.00
29403;DHT22;16382;59.942;30.472;2023-11-19T22:17:37;-1.80;64.60
29403;DHT22;16382;59.942;30.472;2023-11-19T22:20:05;-1.80;64.70
29403;DHT22;16382;59.942;30.472;2023-11-19T22:22:36;-1.70;64.60
29403;DHT22;16382;59.942;30.472;2023-11-19T22:25:07;-1.80;64.50
29403;DHT22;16382;59.942;30.472;2023-11-19T22:27:36;-1.80;65.00
29403;DHT22;16382;59.942;30.472;2023-11-19T22:30:04;-1.80;64.80
29403;DHT22;16382;59.942;30.472;2023-11-19T22:32:37;-1.90;64.70
29403;DHT22;16382;59.942;30.472;2023-11-19T22:35:06;-1.80;64.70
29403;DHT22;16382;59.942;30.472;2023-11-19T22:37:33;-1.80;64.30
29403;DHT22;16382;59.942;30.472;2023-11-19T22:40:01;-1.90;64.50
29403;DHT22;16382;59.942;30.472;2023-11-19T22:42:29;-1.90;64.90
29403;DHT22;16382;59.942;30.472;2023-11-19T22:44:59;-2.00;65.00
29403;DHT22;16382;59.942;30.472;2023-11-19T22:47:28;-2.00;65.20
29403;DHT22;16382;59.942;30.472;2023-11-19T22:49:56;-1.90;65.00
29403;DHT22;16382;59.942;30.472;2023-11-19T22:52:23;-1.90;64.80
29403;DHT22;16382;59.942;30.472;2023-11-19T22:54:51;-1.90;64.90
29403;DHT22;16382;59.942;30.472;2023-11-19T22:57:19;-2.00;65.10
29403;DHT22;16382;59.942;30.472;2023-11-19T22:59:47;-1.90;64.90
29403;DHT22;16382;59.942;30.472;2023-11-19T23:02:14;-2.00;64.40
29403;DHT22;16382;59.942;30.472;2023-11-19T23:04:43;-2.00;64.90
29403;DHT22;16382;59.942;30.472;2023-11-19T23:07:10;-2.00;65.00
29403;DHT22;16382;59.942;30.472;2023-11-19T23:09:40;-2.10;65.50
29403;DHT22;16382;59.942;30.472;2023-11-19T23:12:09;-2.10;65.80
29403;DHT22;16382;59.942;30.472;2023-11-19T23:14:37;-2.10;65.50
29403;DHT22;16382;59.942;30.472;2023-11-19T23:17:04;-2.10;65.80
29403;DHT22;16382;59.942;30.472;2023-11-19T23:19:33;-2.10;65.70
29403;DHT22;16382;59.942;30.472;2023-11-19T23:22:02;-2.00;65.70
29403;DHT22;16382;59.942;30.472;2023-11-19T23:24:31;-2.00;65.20
29403;DHT22;16382;59.942;30.472;2023-11-19T23:26:58;-2.10;65.20
29403;DHT22;16382;59.942;30.472;2023-11-19T23:29:27;-2.10;65.20
29403;DHT22;16382;59.942;30.472;2023-11-19T23:31:54;-2.20;65.40
29403;DHT22;16382;59.942;30.472;2023-11-19T23:34:22;-2.20;66.10
29403;DHT22;16382;59.942;30.472;2023-11-19T23:36:49;-2.20;65.70
29403;DHT22;16382;59.942;30.472;2023-11-19T23:39:18;-2.20;65.50
29403;DHT22;16382;59.942;30.472;2023-11-19T23:41:46;-2.20;65.80
29403;DHT22;16382;59.942;30.472;2023-11-19T23:44:13;-2.10;66.00
29403;DHT22;16382;59.942;30.472;2023-11-19T23:46:43;-2.10;65.60
29403;DHT22;16382;59.942;30.472;2023-11-19T23:49:10;-2.00;65.60
29403;DHT22;16382;59.942;30.472;2023-11-19T23:51:38;-1.90;65.30
29403;DHT22;16382;59.942;30.472;2023-11-19T23:54:06;-1.90;65.20
29403;DHT22;16382;59.942;30.472;2023-11-19T23:56:35;-2.00;65.20
29403;DHT22;16382;59.942;30.472;2023-11-19T23:59:03;-2.10;65.10
